sensor_id;sensor_type;location;lat;lon;timestamp;P1;durP1;ratioP1;P2;durP2;ratioP2
77417;SDS011;66490;51.484;0.026;2023-07-13T00:00:10;6.75;;;2.28;;
77417;SDS011;66490;51.484;0.026;2023-07-13T00:02:54;5.63;;;1.92;;
77417;SDS011;66490;51.484;0.026;2023-07-13T00:05:44;10.05;;;2.20;;
77417;SDS011;66490;51.484;0.026;2023-07-13T00:08:30;9.60;;;2.53;;
77417;SDS011;66490;51.484;0.026;2023-07-13T00:11:15;9.77;;;1.93;;
77417;SDS011;66490;51.484;0.026;2023-07-13T00:14:03;6.68;;;1.73;;
77417;SDS011;66490;51.484;0.026;2023-07-13T00:16:47;6.78;;;1.73;;
77417;SDS011;66490;51.484;0.026;2023-07-13T00:19:31;8.27;;;1.60;;
77417;SDS011;66490;51.484;0.026;2023-07-13T00:22:15;10.70;;;2.40;;
77417;SDS011;66490;51.484;0.026;2023-07-13T00:24:59;5.13;;;1.47;;
77417;SDS011;66490;51.484;0.026;2023-07-13T00:27:43;7.45;;;2.40;;
77417;SDS011;66490;51.484;0.026;2023-07-13T00:30:35;11.02;;;2.60;;
77417;SDS011;66490;51.484;0.026;2023-07-13T00:33:19;8.07;;;2.22;;
77417;SDS011;66490;51.484;0.026;2023-07-13T00:36:03;7.00;;;2.15;;
77417;SDS011;66490;51.484;0.026;2023-07-13T00:38:47;7.67;;;2.13;;
77417;SDS011;66490;51.484;0.026;2023-07-13T00:41:31;7.07;;;1.92;;
77417;SDS011;66490;51.484;0.026;2023-07-13T00:44:17;6.88;;;2.28;;
77417;SDS011;66490;51.484;0.026;2023-07-13T00:47:01;8.63;;;2.28;;
77417;SDS011;66490;51.484;0.026;2023-07-13T00:49:45;9.65;;;2.10;;
77417;SDS011;66490;51.484;0.026;2023-07-13T00:52:29;9.60;;;1.63;;
77417;SDS011;66490;51.484;0.026;2023-07-13T00:55:14;9.98;;;2.47;;
77417;SDS011;66490;51.484;0.026;2023-07-13T00:58:01;8.02;;;2.22;;
77417;SDS011;66490;51.484;0.026;2023-07-13T01:00:45;7.28;;;1.83;;
77417;SDS011;66490;51.484;0.026;2023-07-13T01:03:30;6.30;;;2.08;;
77417;SDS011;66490;51.484;0.026;2023-07-13T01:06:14;5.67;;;1.80;;
77417;SDS011;66490;51.484;0.026;2023-07-13T01:08:58;9.77;;;2.35;;
77417;SDS011;66490;51.484;0.026;2023-07-13T01:11:42;5.63;;;2.20;;
77417;SDS011;66490;51.484;0.026;2023-07-13T01:14:26;9.60;;;2.00;;
77417;SDS011;66490;51.484;0.026;2023-07-13T01:17:10;9.00;;;2.30;;
77417;SDS011;66490;51.484;0.026;2023-07-13T01:19:55;8.47;;;1.97;;
77417;SDS011;66490;51.484;0.026;2023-07-13T01:22:39;9.93;;;2.25;;
77417;SDS011;66490;51.484;0.026;2023-07-13T01:25:23;6.50;;;2.13;;
77417;SDS011;66490;51.484;0.026;2023-07-13T01:28:08;10.27;;;2.00;;
77417;SDS011;66490;51.484;0.026;2023-07-13T01:30:55;7.45;;;2.15;;
77417;SDS011;66490;51.484;0.026;2023-07-13T01:33:40;9.13;;;2.00;;
77417;SDS011;66490;51.484;0.026;2023-07-13T01:36:23;7.57;;;2.00;;
77417;SDS011;66490;51.484;0.026;2023-07-13T01:39:07;8.85;;;2.30;;
77417;SDS011;66490;51.484;0.026;2023-07-13T01:41:51;6.75;;;2.10;;
77417;SDS011;66490;51.484;0.026;2023-07-13T01:44:38;8.43;;;2.75;;
77417;SDS011;66490;51.484;0.026;2023-07-13T01:47:23;14.27;;;2.00;;
77417;SDS011;66490;51.484;0.026;2023-07-13T01:50:07;8.80;;;2.63;;
77417;SDS011;66490;51.484;0.026;2023-07-13T01:52:51;5.05;;;2.03;;
77417;SDS011;66490;51.484;0.026;2023-07-13T01:55:35;6.45;;;2.20;;
77417;SDS011;66490;51.484;0.026;2023-07-13T01:58:19;5.95;;;2.25;;
77417;SDS011;66490;51.484;0.026;2023-07-13T02:01:03;10.67;;;2.53;;
77417;SDS011;66490;51.484;0.026;2023-07-13T02:03:47;11.38;;;2.75;;
77417;SDS011;66490;51.484;0.026;2023-07-13T02:06:32;8.10;;;2.28;;
77417;SDS011;66490;51.484;0.026;2023-07-13T02:09:16;8.68;;;2.28;;
77417;SDS011;66490;51.484;0.026;2023-07-13T02:12:00;8.90;;;2.10;;
77417;SDS011;66490;51.484;0.026;2023-07-13T02:14:45;7.17;;;1.90;;
77417;SDS011;66490;51.484;0.026;2023-07-13T02:17:29;7.15;;;2.05;;
77417;SDS011;66490;51.484;0.026;2023-07-13T02:20:13;9.82;;;2.40;;
77417;SDS011;66490;51.484;0.026;2023-07-13T02:22:56;7.30;;;2.42;;
77417;SDS011;66490;51.484;0.026;2023-07-13T02:25:40;8.23;;;2.55;;
77417;SDS011;66490;51.484;0.026;2023-07-13T02:28:24;8.93;;;2.37;;
77417;SDS011;66490;51.484;0.026;2023-07-13T02:31:10;10.00;;;2.15;;
77417;SDS011;66490;51.484;0.026;2023-07-13T02:33:54;9.23;;;2.58;;
77417;SDS011;66490;51.484;0.026;2023-07-13T02:36:38;7.32;;;2.17;;
77417;SDS011;66490;51.484;0.026;2023-07-13T02:39:21;9.15;;;2.72;;
77417;SDS011;66490;51.484;0.026;2023-07-13T02:42:06;6.20;;;2.33;;
77417;SDS011;66490;51.484;0.026;2023-07-13T02:44:50;10.38;;;2.47;;
77417;SDS011;66490;51.484;0.026;2023-07-13T02:47:35;12.60;;;2.80;;
77417;SDS011;66490;51.484;0.026;2023-07-13T02:50:18;8.90;;;2.60;;
77417;SDS011;66490;51.484;0.026;2023-07-13T02:53:02;5.45;;;2.25;;
77417;SDS011;66490;51.484;0.026;2023-07-13T02:55:46;12.03;;;2.90;;
77417;SDS011;66490;51.484;0.026;2023-07-13T02:58:31;8.90;;;2.70;;
77417;SDS011;66490;51.484;0.026;2023-07-13T03:01:18;5.50;;;2.15;;
77417;SDS011;66490;51.484;0.026;2023-07-13T03:04:02;8.32;;;2.15;;
77417;SDS011;66490;51.484;0.026;2023-07-13T03:06:47;9.52;;;2.60;;
77417;SDS011;66490;51.484;0.026;2023-07-13T03:09:31;9.93;;;3.07;;
77417;SDS011;66490;51.484;0.026;2023-07-13T03:12:16;7.15;;;2.65;;
77417;SDS011;66490;51.484;0.026;2023-07-13T03:15:00;11.85;;;2.75;;
77417;SDS011;66490;51.484;0.026;2023-07-13T03:17:44;9.60;;;2.78;;
77417;SDS011;66490;51.484;0.026;2023-07-13T03:20:28;12.52;;;2.83;;
77417;SDS011;66490;51.484;0.026;2023-07-13T03:23:12;8.80;;;2.80;;
77417;SDS011;66490;51.484;0.026;2023-07-13T03:26:04;7.00;;;2.35;;
77417;SDS011;66490;51.484;0.026;2023-07-13T03:28:49;6.20;;;2.00;;
77417;SDS011;66490;51.484;0.026;2023-07-13T03:31:34;11.05;;;2.60;;
77417;SDS011;66490;51.484;0.026;2023-07-13T03:34:18;8.80;;;2.33;;
77417;SDS011;66490;51.484;0.026;2023-07-13T03:37:02;7.10;;;2.40;;
77417;SDS011;66490;51.484;0.026;2023-07-13T03:39:46;11.23;;;2.42;;
77417;SDS011;66490;51.484;0.026;2023-07-13T03:42:30;8.00;;;2.42;;
77417;SDS011;66490;51.484;0.026;2023-07-13T03:45:14;9.30;;;2.20;;
77417;SDS011;66490;51.484;0.026;2023-07-13T03:47:58;6.03;;;2.42;;
77417;SDS011;66490;51.484;0.026;2023-07-13T03:50:42;7.83;;;2.73;;
77417;SDS011;66490;51.484;0.026;2023-07-13T03:53:26;8.38;;;2.38;;
77417;SDS011;66490;51.484;0.026;2023-07-13T03:56:10;6.80;;;2.53;;
77417;SDS011;66490;51.484;0.026;2023-07-13T03:58:55;10.82;;;2.42;;
77417;SDS011;66490;51.484;0.026;2023-07-13T04:01:39;6.25;;;2.60;;
77417;SDS011;66490;51.484;0.026;2023-07-13T04:04:23;8.77;;;1.83;;
77417;SDS011;66490;51.484;0.026;2023-07-13T04:07:07;8.27;;;1.85;;
77417;SDS011;66490;51.484;0.026;2023-07-13T04:09:52;6.05;;;2.22;;
77417;SDS011;66490;51.484;0.026;2023-07-13T04:12:36;9.77;;;2.20;;
77417;SDS011;66490;51.484;0.026;2023-07-13T04:15:20;7.82;;;2.65;;
77417;SDS011;66490;51.484;0.026;2023-07-13T04:18:06;7.40;;;2.33;;
77417;SDS011;66490;51.484;0.026;2023-07-13T04:20:50;7.80;;;2.17;;
77417;SDS011;66490;51.484;0.026;2023-07-13T04:23:35;8.98;;;2.20;;
77417;SDS011;66490;51.484;0.026;2023-07-13T04:26:19;10.05;;;2.63;;
77417;SDS011;66490;51.484;0.026;2023-07-13T04:29:05;9.45;;;3.40;;
77417;SDS011;66490;51.484;0.026;2023-07-13T04:31:52;10.30;;;2.50;;
77417;SDS011;66490;51.484;0.026;2023-07-13T04:34:36;9.23;;;1.92;;
77417;SDS011;66490;51.484;0.026;2023-07-13T04:37:20;9.90;;;2.20;;
77417;SDS011;66490;51.484;0.026;2023-07-13T04:40:04;6.70;;;1.58;;
77417;SDS011;66490;51.484;0.026;2023-07-13T04:42:49;6.07;;;2.00;;
77417;SDS011;66490;51.484;0.026;2023-07-13T04:45:34;9.97;;;1.80;;
77417;SDS011;66490;51.484;0.026;2023-07-13T04:48:18;7.47;;;2.03;;
77417;SDS011;66490;51.484;0.026;2023-07-13T04:51:03;6.65;;;2.60;;
77417;SDS011;66490;51.484;0.026;2023-07-13T04:53:47;6.60;;;2.22;;
77417;SDS011;66490;51.484;0.026;2023-07-13T04:56:31;6.45;;;2.00;;
77417;SDS011;66490;51.484;0.026;2023-07-13T04:59:15;4.80;;;1.97;;
77417;SDS011;66490;51.484;0.026;2023-07-13T05:01:59;7.15;;;1.88;;
77417;SDS011;66490;51.484;0.026;2023-07-13T05:04:48;9.52;;;2.63;;
77417;SDS011;66490;51.484;0.026;2023-07-13T05:07:32;6.45;;;1.52;;
77417;SDS011;66490;51.484;0.026;2023-07-13T05:10:17;9.90;;;2.05;;
77417;SDS011;66490;51.484;0.026;2023-07-13T05:13:03;9.17;;;1.93;;
77417;SDS011;66490;51.484;0.026;2023-07-13T05:15:55;5.60;;;1.70;;
77417;SDS011;66490;51.484;0.026;2023-07-13T05:18:39;6.93;;;1.92;;
77417;SDS011;66490;51.484;0.026;2023-07-13T05:21:23;9.50;;;2.03;;
77417;SDS011;66490;51.484;0.026;2023-07-13T05:24:07;8.52;;;2.17;;
77417;SDS011;66490;51.484;0.026;2023-07-13T05:26:52;11.00;;;2.50;;
77417;SDS011;66490;51.484;0.026;2023-07-13T05:29:37;6.55;;;2.08;;
77417;SDS011;66490;51.484;0.026;2023-07-13T05:32:22;7.03;;;2.17;;
77417;SDS011;66490;51.484;0.026;2023-07-13T05:35:06;5.38;;;1.85;;
77417;SDS011;66490;51.484;0.026;2023-07-13T05:37:50;5.88;;;2.03;;
77417;SDS011;66490;51.484;0.026;2023-07-13T05:40:34;7.67;;;1.60;;
77417;SDS011;66490;51.484;0.026;2023-07-13T05:43:18;5.32;;;1.92;;
77417;SDS011;66490;51.484;0.026;2023-07-13T05:46:02;7.40;;;2.40;;
77417;SDS011;66490;51.484;0.026;2023-07-13T05:48:46;7.10;;;1.33;;
77417;SDS011;66490;51.484;0.026;2023-07-13T05:51:30;6.57;;;1.40;;
77417;SDS011;66490;51.484;0.026;2023-07-13T05:54:14;5.03;;;1.40;;
77417;SDS011;66490;51.484;0.026;2023-07-13T05:56:58;6.68;;;1.63;;
77417;SDS011;66490;51.484;0.026;2023-07-13T05:59:42;7.57;;;2.25;;
77417;SDS011;66490;51.484;0.026;2023-07-13T06:02:28;8.88;;;1.98;;
77417;SDS011;66490;51.484;0.026;2023-07-13T06:05:20;6.68;;;1.90;;
77417;SDS011;66490;51.484;0.026;2023-07-13T06:08:04;8.67;;;1.87;;
77417;SDS011;66490;51.484;0.026;2023-07-13T06:10:48;6.75;;;1.83;;
77417;SDS011;66490;51.484;0.026;2023-07-13T06:13:32;6.63;;;2.30;;
77417;SDS011;66490;51.484;0.026;2023-07-13T06:16:17;7.70;;;1.73;;
77417;SDS011;66490;51.484;0.026;2023-07-13T06:19:01;5.75;;;1.98;;
77417;SDS011;66490;51.484;0.026;2023-07-13T06:21:45;8.43;;;1.93;;
77417;SDS011;66490;51.484;0.026;2023-07-13T06:24:29;4.55;;;1.40;;
77417;SDS011;66490;51.484;0.026;2023-07-13T06:27:13;8.27;;;2.10;;
77417;SDS011;66490;51.484;0.026;2023-07-13T06:29:57;10.68;;;2.60;;
77417;SDS011;66490;51.484;0.026;2023-07-13T06:32:41;6.25;;;2.05;;
77417;SDS011;66490;51.484;0.026;2023-07-13T06:35:25;8.90;;;1.60;;
77417;SDS011;66490;51.484;0.026;2023-07-13T06:38:09;7.05;;;1.60;;
77417;SDS011;66490;51.484;0.026;2023-07-13T06:40:53;6.85;;;1.83;;
77417;SDS011;66490;51.484;0.026;2023-07-13T06:43:37;8.50;;;1.65;;
77417;SDS011;66490;51.484;0.026;2023-07-13T06:46:21;4.75;;;1.60;;
77417;SDS011;66490;51.484;0.026;2023-07-13T06:49:05;8.67;;;1.50;;
77417;SDS011;66490;51.484;0.026;2023-07-13T06:51:49;5.95;;;1.67;;
77417;SDS011;66490;51.484;0.026;2023-07-13T06:54:33;6.45;;;2.00;;
77417;SDS011;66490;51.484;0.026;2023-07-13T06:57:18;7.30;;;1.48;;
77417;SDS011;66490;51.484;0.026;2023-07-13T07:00:02;7.93;;;2.15;;
77417;SDS011;66490;51.484;0.026;2023-07-13T07:02:47;4.13;;;1.40;;
77417;SDS011;66490;51.484;0.026;2023-07-13T07:05:31;4.00;;;1.15;;
77417;SDS011;66490;51.484;0.026;2023-07-13T07:08:15;6.25;;;1.50;;
77417;SDS011;66490;51.484;0.026;2023-07-13T07:10:59;6.60;;;1.77;;
77417;SDS011;66490;51.484;0.026;2023-07-13T07:13:43;7.20;;;2.10;;
77417;SDS011;66490;51.484;0.026;2023-07-13T07:16:26;6.67;;;1.53;;
77417;SDS011;66490;51.484;0.026;2023-07-13T07:19:10;7.20;;;1.40;;
77417;SDS011;66490;51.484;0.026;2023-07-13T07:21:54;6.95;;;1.90;;
77417;SDS011;66490;51.484;0.026;2023-07-13T07:24:38;5.60;;;1.20;;
77417;SDS011;66490;51.484;0.026;2023-07-13T07:27:22;6.07;;;1.70;;
77417;SDS011;66490;51.484;0.026;2023-07-13T07:30:07;7.97;;;2.23;;
77417;SDS011;66490;51.484;0.026;2023-07-13T07:32:51;4.85;;;1.45;;
77417;SDS011;66490;51.484;0.026;2023-07-13T07:35:35;7.63;;;1.98;;
77417;SDS011;66490;51.484;0.026;2023-07-13T07:38:22;9.20;;;2.28;;
77417;SDS011;66490;51.484;0.026;2023-07-13T07:41:06;9.38;;;2.13;;
77417;SDS011;66490;51.484;0.026;2023-07-13T07:43:50;6.50;;;2.00;;
77417;SDS011;66490;51.484;0.026;2023-07-13T07:46:34;6.30;;;1.33;;
77417;SDS011;66490;51.484;0.026;2023-07-13T07:49:18;7.25;;;2.10;;
77417;SDS011;66490;51.484;0.026;2023-07-13T07:52:02;9.20;;;2.55;;
77417;SDS011;66490;51.484;0.026;2023-07-13T07:54:46;8.90;;;2.33;;
77417;SDS011;66490;51.484;0.026;2023-07-13T07:57:30;9.67;;;1.90;;
77417;SDS011;66490;51.484;0.026;2023-07-13T08:00:15;8.68;;;2.28;;
77417;SDS011;66490;51.484;0.026;2023-07-13T08:02:59;9.00;;;1.85;;
77417;SDS011;66490;51.484;0.026;2023-07-13T08:05:43;5.13;;;1.15;;
77417;SDS011;66490;51.484;0.026;2023-07-13T08:08:27;4.60;;;1.65;;
77417;SDS011;66490;51.484;0.026;2023-07-13T08:11:11;8.10;;;1.77;;
77417;SDS011;66490;51.484;0.026;2023-07-13T08:13:55;8.65;;;1.65;;
77417;SDS011;66490;51.484;0.026;2023-07-13T08:16:39;5.40;;;1.77;;
77417;SDS011;66490;51.484;0.026;2023-07-13T08:19:23;5.43;;;1.80;;
77417;SDS011;66490;51.484;0.026;2023-07-13T08:22:07;6.90;;;2.00;;
77417;SDS011;66490;51.484;0.026;2023-07-13T08:24:51;5.43;;;1.63;;
77417;SDS011;66490;51.484;0.026;2023-07-13T08:27:39;5.25;;;1.60;;
77417;SDS011;66490;51.484;0.026;2023-07-13T08:30:23;6.20;;;1.58;;
77417;SDS011;66490;51.484;0.026;2023-07-13T08:33:07;5.72;;;1.90;;
77417;SDS011;66490;51.484;0.026;2023-07-13T08:35:51;6.53;;;1.92;;
77417;SDS011;66490;51.484;0.026;2023-07-13T08:38:35;4.93;;;1.53;;
77417;SDS011;66490;51.484;0.026;2023-07-13T08:41:19;5.93;;;1.40;;
77417;SDS011;66490;51.484;0.026;2023-07-13T08:44:04;6.43;;;1.60;;
77417;SDS011;66490;51.484;0.026;2023-07-13T08:46:49;5.25;;;1.40;;
77417;SDS011;66490;51.484;0.026;2023-07-13T08:49:35;5.03;;;1.63;;
77417;SDS011;66490;51.484;0.026;2023-07-13T08:52:31;9.30;;;1.87;;
77417;SDS011;66490;51.484;0.026;2023-07-13T08:55:20;7.03;;;2.17;;
77417;SDS011;66490;51.484;0.026;2023-07-13T08:58:15;5.65;;;1.65;;
77417;SDS011;66490;51.484;0.026;2023-07-13T09:01:02;7.28;;;1.63;;
77417;SDS011;66490;51.484;0.026;2023-07-13T09:06:46;5.57;;;1.07;;
77417;SDS011;66490;51.484;0.026;2023-07-13T09:12:45;5.45;;;1.52;;
77417;SDS011;66490;51.484;0.026;2023-07-13T09:15:32;8.63;;;1.92;;
77417;SDS011;66490;51.484;0.026;2023-07-13T09:18:18;11.52;;;1.45;;
77417;SDS011;66490;51.484;0.026;2023-07-13T09:23:47;6.43;;;1.15;;
77417;SDS011;66490;51.484;0.026;2023-07-13T09:26:31;4.75;;;1.77;;
77417;SDS011;66490;51.484;0.026;2023-07-13T09:29:20;7.30;;;1.00;;
77417;SDS011;66490;51.484;0.026;2023-07-13T09:32:06;4.95;;;0.93;;
77417;SDS011;66490;51.484;0.026;2023-07-13T09:34:52;5.03;;;0.70;;
77417;SDS011;66490;51.484;0.026;2023-07-13T09:37:36;6.25;;;1.17;;
77417;SDS011;66490;51.484;0.026;2023-07-13T09:40:25;3.65;;;0.95;;
77417;SDS011;66490;51.484;0.026;2023-07-13T09:43:13;4.80;;;1.17;;
77417;SDS011;66490;51.484;0.026;2023-07-13T09:45:58;6.07;;;1.00;;
77417;SDS011;66490;51.484;0.026;2023-07-13T09:48:43;5.40;;;1.40;;
77417;SDS011;66490;51.484;0.026;2023-07-13T09:51:27;8.00;;;1.52;;
77417;SDS011;66490;51.484;0.026;2023-07-13T09:54:21;7.68;;;1.20;;
77417;SDS011;66490;51.484;0.026;2023-07-13T09:57:15;5.18;;;0.95;;
77417;SDS011;66490;51.484;0.026;2023-07-13T10:00:00;6.47;;;1.70;;
77417;SDS011;66490;51.484;0.026;2023-07-13T10:02:44;5.90;;;1.37;;
77417;SDS011;66490;51.484;0.026;2023-07-13T10:05:28;5.35;;;1.10;;
77417;SDS011;66490;51.484;0.026;2023-07-13T10:08:21;6.13;;;1.73;;
77417;SDS011;66490;51.484;0.026;2023-07-13T10:11:14;5.47;;;1.40;;
77417;SDS011;66490;51.484;0.026;2023-07-13T10:16:46;5.23;;;0.80;;
77417;SDS011;66490;51.484;0.026;2023-07-13T10:19:31;4.53;;;0.93;;
77417;SDS011;66490;51.484;0.026;2023-07-13T10:25:08;3.78;;;1.10;;
77417;SDS011;66490;51.484;0.026;2023-07-13T10:28:43;4.88;;;1.17;;
77417;SDS011;66490;51.484;0.026;2023-07-13T10:31:10;5.90;;;1.50;;
77417;SDS011;66490;51.484;0.026;2023-07-13T10:33:55;3.67;;;1.00;;
77417;SDS011;66490;51.484;0.026;2023-07-13T10:36:40;5.85;;;1.38;;
77417;SDS011;66490;51.484;0.026;2023-07-13T10:39:26;7.68;;;1.25;;
77417;SDS011;66490;51.484;0.026;2023-07-13T10:42:11;5.50;;;1.48;;
77417;SDS011;66490;51.484;0.026;2023-07-13T10:44:56;5.00;;;1.30;;
77417;SDS011;66490;51.484;0.026;2023-07-13T10:47:40;5.15;;;1.40;;
77417;SDS011;66490;51.484;0.026;2023-07-13T10:50:25;4.00;;;1.33;;
77417;SDS011;66490;51.484;0.026;2023-07-13T10:53:20;3.80;;;1.00;;
77417;SDS011;66490;51.484;0.026;2023-07-13T11:01:55;4.22;;;0.98;;
77417;SDS011;66490;51.484;0.026;2023-07-13T11:04:42;3.83;;;1.52;;
77417;SDS011;66490;51.484;0.026;2023-07-13T11:07:28;2.88;;;0.90;;
77417;SDS011;66490;51.484;0.026;2023-07-13T11:10:45;3.90;;;1.20;;
77417;SDS011;66490;51.484;0.026;2023-07-13T11:14:25;6.37;;;0.97;;
77417;SDS011;66490;51.484;0.026;2023-07-13T11:16:36;4.35;;;1.23;;
77417;SDS011;66490;51.484;0.026;2023-07-13T11:24:56;3.50;;;0.88;;
77417;SDS011;66490;51.484;0.026;2023-07-13T11:27:44;4.17;;;0.80;;
77417;SDS011;66490;51.484;0.026;2023-07-13T11:33:18;5.75;;;1.05;;
77417;SDS011;66490;51.484;0.026;2023-07-13T11:36:03;4.00;;;1.08;;
77417;SDS011;66490;51.484;0.026;2023-07-13T11:38:55;2.65;;;0.80;;
77417;SDS011;66490;51.484;0.026;2023-07-13T11:42:00;3.33;;;0.80;;
77417;SDS011;66490;51.484;0.026;2023-07-13T11:44:49;3.72;;;1.00;;
77417;SDS011;66490;51.484;0.026;2023-07-13T11:47:33;3.83;;;1.10;;
77417;SDS011;66490;51.484;0.026;2023-07-13T11:50:20;3.90;;;0.98;;
77417;SDS011;66490;51.484;0.026;2023-07-13T11:53:08;3.15;;;1.15;;
77417;SDS011;66490;51.484;0.026;2023-07-13T11:55:57;4.17;;;1.30;;
77417;SDS011;66490;51.484;0.026;2023-07-13T12:03:04;3.17;;;0.85;;
77417;SDS011;66490;51.484;0.026;2023-07-13T12:05:59;4.03;;;1.10;;
77417;SDS011;66490;51.484;0.026;2023-07-13T12:08:44;3.35;;;1.27;;
77417;SDS011;66490;51.484;0.026;2023-07-13T12:11:29;3.37;;;1.17;;
77417;SDS011;66490;51.484;0.026;2023-07-13T12:14:14;3.13;;;0.82;;
77417;SDS011;66490;51.484;0.026;2023-07-13T12:16:59;3.38;;;0.70;;
77417;SDS011;66490;51.484;0.026;2023-07-13T12:19:43;4.10;;;1.00;;
77417;SDS011;66490;51.484;0.026;2023-07-13T12:22:27;3.83;;;1.20;;
77417;SDS011;66490;51.484;0.026;2023-07-13T12:25:11;5.97;;;1.00;;
77417;SDS011;66490;51.484;0.026;2023-07-13T12:27:56;2.65;;;0.88;;
77417;SDS011;66490;51.484;0.026;2023-07-13T12:30:40;3.13;;;0.85;;
77417;SDS011;66490;51.484;0.026;2023-07-13T12:33:26;3.65;;;1.13;;
77417;SDS011;66490;51.484;0.026;2023-07-13T12:36:12;5.05;;;1.70;;
77417;SDS011;66490;51.484;0.026;2023-07-13T12:38:57;3.27;;;1.40;;
77417;SDS011;66490;51.484;0.026;2023-07-13T12:41:42;4.85;;;1.35;;
77417;SDS011;66490;51.484;0.026;2023-07-13T12:44:29;3.63;;;1.10;;
77417;SDS011;66490;51.484;0.026;2023-07-13T12:47:14;3.92;;;1.15;;
77417;SDS011;66490;51.484;0.026;2023-07-13T12:49:59;4.28;;;1.00;;
77417;SDS011;66490;51.484;0.026;2023-07-13T12:52:49;2.47;;;0.87;;
77417;SDS011;66490;51.484;0.026;2023-07-13T12:55:40;2.83;;;0.80;;
77417;SDS011;66490;51.484;0.026;2023-07-13T12:58:36;2.88;;;0.80;;
77417;SDS011;66490;51.484;0.026;2023-07-13T13:01:21;3.95;;;1.50;;
77417;SDS011;66490;51.484;0.026;2023-07-13T13:04:06;3.50;;;1.30;;
77417;SDS011;66490;51.484;0.026;2023-07-13T13:07:02;4.50;;;1.30;;
77417;SDS011;66490;51.484;0.026;2023-07-13T13:09:47;4.80;;;0.90;;
77417;SDS011;66490;51.484;0.026;2023-07-13T13:12:31;3.80;;;1.17;;
77417;SDS011;66490;51.484;0.026;2023-07-13T13:15:15;3.45;;;0.60;;
77417;SDS011;66490;51.484;0.026;2023-07-13T13:18:00;3.45;;;0.95;;
77417;SDS011;66490;51.484;0.026;2023-07-13T13:20:44;2.43;;;0.60;;
77417;SDS011;66490;51.484;0.026;2023-07-13T13:23:28;4.43;;;1.08;;
77417;SDS011;66490;51.484;0.026;2023-07-13T13:26:13;4.53;;;1.20;;
77417;SDS011;66490;51.484;0.026;2023-07-13T13:29:00;2.97;;;0.82;;
77417;SDS011;66490;51.484;0.026;2023-07-13T13:31:44;4.10;;;1.05;;
77417;SDS011;66490;51.484;0.026;2023-07-13T13:34:29;3.37;;;0.83;;
77417;SDS011;66490;51.484;0.026;2023-07-13T13:37:16;3.47;;;0.93;;
77417;SDS011;66490;51.484;0.026;2023-07-13T13:40:01;3.38;;;1.13;;
77417;SDS011;66490;51.484;0.026;2023-07-13T13:42:44;3.60;;;1.35;;
77417;SDS011;66490;51.484;0.026;2023-07-13T13:45:28;3.13;;;1.13;;
77417;SDS011;66490;51.484;0.026;2023-07-13T13:48:16;3.33;;;0.70;;
77417;SDS011;66490;51.484;0.026;2023-07-13T13:51:06;3.30;;;0.90;;
77417;SDS011;66490;51.484;0.026;2023-07-13T13:53:55;3.13;;;0.63;;
77417;SDS011;66490;51.484;0.026;2023-07-13T13:56:41;3.75;;;0.98;;
77417;SDS011;66490;51.484;0.026;2023-07-13T13:59:25;2.75;;;0.95;;
77417;SDS011;66490;51.484;0.026;2023-07-13T14:02:16;4.13;;;0.60;;
77417;SDS011;66490;51.484;0.026;2023-07-13T14:05:03;5.28;;;1.25;;
77417;SDS011;66490;51.484;0.026;2023-07-13T14:07:47;3.88;;;0.90;;
77417;SDS011;66490;51.484;0.026;2023-07-13T14:10:34;3.92;;;1.00;;
77417;SDS011;66490;51.484;0.026;2023-07-13T14:13:21;3.72;;;1.27;;
77417;SDS011;66490;51.484;0.026;2023-07-13T14:16:09;3.13;;;1.00;;
77417;SDS011;66490;51.484;0.026;2023-07-13T14:18:54;4.57;;;1.10;;
77417;SDS011;66490;51.484;0.026;2023-07-13T14:21:42;3.78;;;0.82;;
77417;SDS011;66490;51.484;0.026;2023-07-13T14:24:26;5.05;;;1.30;;
77417;SDS011;66490;51.484;0.026;2023-07-13T14:27:10;4.78;;;1.60;;
77417;SDS011;66490;51.484;0.026;2023-07-13T14:30:00;8.40;;;1.10;;
77417;SDS011;66490;51.484;0.026;2023-07-13T14:32:44;5.25;;;1.73;;
77417;SDS011;66490;51.484;0.026;2023-07-13T14:35:28;6.63;;;1.70;;
77417;SDS011;66490;51.484;0.026;2023-07-13T14:38:15;4.43;;;1.88;;
77417;SDS011;66490;51.484;0.026;2023-07-13T14:40:59;3.95;;;1.35;;
77417;SDS011;66490;51.484;0.026;2023-07-13T14:43:44;3.63;;;0.80;;
77417;SDS011;66490;51.484;0.026;2023-07-13T14:46:29;4.57;;;1.50;;
77417;SDS011;66490;51.484;0.026;2023-07-13T14:52:02;5.68;;;1.55;;
77417;SDS011;66490;51.484;0.026;2023-07-13T14:54:46;3.70;;;1.52;;
77417;SDS011;66490;51.484;0.026;2023-07-13T14:57:30;5.50;;;1.30;;
77417;SDS011;66490;51.484;0.026;2023-07-13T15:00:18;3.83;;;1.00;;
77417;SDS011;66490;51.484;0.026;2023-07-13T15:03:03;3.92;;;1.52;;
77417;SDS011;66490;51.484;0.026;2023-07-13T15:05:50;4.97;;;1.55;;
77417;SDS011;66490;51.484;0.026;2023-07-13T15:08:34;4.07;;;1.45;;
77417;SDS011;66490;51.484;0.026;2023-07-13T15:11:21;5.90;;;1.30;;
77417;SDS011;66490;51.484;0.026;2023-07-13T15:14:05;5.35;;;1.55;;
77417;SDS011;66490;51.484;0.026;2023-07-13T15:16:49;6.40;;;1.70;;
77417;SDS011;66490;51.484;0.026;2023-07-13T15:19:34;6.38;;;1.45;;
77417;SDS011;66490;51.484;0.026;2023-07-13T15:22:19;5.07;;;1.80;;
77417;SDS011;66490;51.484;0.026;2023-07-13T15:25:03;6.37;;;1.33;;
77417;SDS011;66490;51.484;0.026;2023-07-13T15:27:49;5.35;;;1.73;;
77417;SDS011;66490;51.484;0.026;2023-07-13T15:30:51;5.28;;;1.58;;
77417;SDS011;66490;51.484;0.026;2023-07-13T15:33:35;5.82;;;1.20;;
77417;SDS011;66490;51.484;0.026;2023-07-13T15:36:21;6.65;;;2.13;;
77417;SDS011;66490;51.484;0.026;2023-07-13T15:39:05;4.23;;;1.30;;
77417;SDS011;66490;51.484;0.026;2023-07-13T15:41:50;6.68;;;1.52;;
77417;SDS011;66490;51.484;0.026;2023-07-13T15:44:38;4.68;;;1.55;;
77417;SDS011;66490;51.484;0.026;2023-07-13T15:47:22;5.75;;;1.98;;
77417;SDS011;66490;51.484;0.026;2023-07-13T15:50:07;4.82;;;1.35;;
77417;SDS011;66490;51.484;0.026;2023-07-13T15:52:55;4.73;;;1.80;;
77417;SDS011;66490;51.484;0.026;2023-07-13T15:55:42;4.18;;;1.40;;
77417;SDS011;66490;51.484;0.026;2023-07-13T15:58:26;6.35;;;1.30;;
77417;SDS011;66490;51.484;0.026;2023-07-13T16:01:12;6.85;;;2.05;;
77417;SDS011;66490;51.484;0.026;2023-07-13T16:03:57;4.95;;;1.85;;
77417;SDS011;66490;51.484;0.026;2023-07-13T16:06:41;6.80;;;1.70;;
77417;SDS011;66490;51.484;0.026;2023-07-13T16:09:25;7.13;;;1.70;;
77417;SDS011;66490;51.484;0.026;2023-07-13T16:12:10;6.97;;;1.90;;
77417;SDS011;66490;51.484;0.026;2023-07-13T16:14:57;5.57;;;1.90;;
77417;SDS011;66490;51.484;0.026;2023-07-13T16:17:42;6.07;;;1.60;;
77417;SDS011;66490;51.484;0.026;2023-07-13T16:20:25;6.33;;;1.63;;
77417;SDS011;66490;51.484;0.026;2023-07-13T16:23:12;5.03;;;1.65;;
77417;SDS011;66490;51.484;0.026;2023-07-13T16:25:56;7.47;;;2.05;;
77417;SDS011;66490;51.484;0.026;2023-07-13T16:28:41;4.97;;;1.48;;
77417;SDS011;66490;51.484;0.026;2023-07-13T16:31:30;5.65;;;1.88;;
77417;SDS011;66490;51.484;0.026;2023-07-13T16:34:15;5.50;;;1.43;;
77417;SDS011;66490;51.484;0.026;2023-07-13T16:36:59;10.50;;;2.38;;
77417;SDS011;66490;51.484;0.026;2023-07-13T16:39:48;6.03;;;1.95;;
77417;SDS011;66490;51.484;0.026;2023-07-13T16:42:36;8.32;;;2.50;;
77417;SDS011;66490;51.484;0.026;2023-07-13T16:45:21;6.28;;;2.30;;
77417;SDS011;66490;51.484;0.026;2023-07-13T16:51:13;6.03;;;2.13;;
77417;SDS011;66490;51.484;0.026;2023-07-13T16:54:00;9.27;;;2.25;;
77417;SDS011;66490;51.484;0.026;2023-07-13T16:56:47;8.57;;;2.35;;
77417;SDS011;66490;51.484;0.026;2023-07-13T17:02:35;5.53;;;1.97;;
77417;SDS011;66490;51.484;0.026;2023-07-13T17:05:21;4.78;;;1.67;;
77417;SDS011;66490;51.484;0.026;2023-07-13T17:08:13;6.43;;;1.98;;
77417;SDS011;66490;51.484;0.026;2023-07-13T17:10:59;4.55;;;1.65;;
77417;SDS011;66490;51.484;0.026;2023-07-13T17:13:43;7.30;;;2.00;;
77417;SDS011;66490;51.484;0.026;2023-07-13T17:16:31;4.97;;;1.50;;
77417;SDS011;66490;51.484;0.026;2023-07-13T17:19:18;5.95;;;1.00;;